sensor_id;sensor_type;location;lat;lon;timestamp;pressure;altitude;pressure_sealevel;temperature;humidity
69909;BME280;57190;47.918;8.112;2024-02-26T00:01:33;88932.66;;;4.15;52.33
69909;BME280;57190;47.918;8.112;2024-02-26T00:03:59;88933.44;;;4.15;53.17
69909;BME280;57190;47.918;8.112;2024-02-26T00:06:25;88934.47;;;4.19;53.28
69909;BME280;57190;47.918;8.112;2024-02-26T00:08:50;88937.59;;;4.21;53.38
69909;BME280;57190;47.918;8.112;2024-02-26T00:11:16;88942.31;;;4.24;53.40
69909;BME280;57190;47.918;8.112;2024-02-26T00:13:41;88947.91;;;4.18;54.02
69909;BME280;57190;47.918;8.112;2024-02-26T00:16:07;88944.50;;;4.17;54.24
69909;BME280;57190;47.918;8.112;2024-02-26T00:18:33;88945.56;;;4.16;55.28
69909;BME280;57190;47.918;8.112;2024-02-26T00:20:58;88942.91;;;4.16;54.95
69909;BME280;57190;47.918;8.112;2024-02-26T00:23:24;88945.56;;;4.16;55.85
69909;BME280;57190;47.918;8.112;2024-02-26T00:25:49;88948.72;;;4.18;55.87
69909;BME280;57190;47.918;8.112;2024-02-26T00:28:14;88955.31;;;4.16;56.21
69909;BME280;57190;47.918;8.112;2024-02-26T00:30:40;88953.47;;;4.16;57.04
69909;BME280;57190;47.918;8.112;2024-02-26T00:33:05;88954.00;;;4.13;58.09
69909;BME280;57190;47.918;8.112;2024-02-26T00:35:31;88957.72;;;4.12;58.78
69909;BME280;57190;47.918;8.112;2024-02-26T00:37:56;88956.16;;;4.11;59.69
69909;BME280;57190;47.918;8.112;2024-02-26T00:40:23;88948.78;;;4.08;60.50
69909;BME280;57190;47.918;8.112;2024-02-26T00:42:49;88955.13;;;4.07;61.13
69909;BME280;57190;47.918;8.112;2024-02-26T00:45:15;88953.81;;;4.04;61.92
69909;BME280;57190;47.918;8.112;2024-02-26T00:47:41;88953.84;;;3.99;63.01
69909;BME280;57190;47.918;8.112;2024-02-26T00:50:07;88954.94;;;3.98;63.33
69909;BME280;57190;47.918;8.112;2024-02-26T00:52:33;88953.66;;;3.90;64.70
69909;BME280;57190;47.918;8.112;2024-02-26T00:54:59;88953.13;;;3.88;65.13
69909;BME280;57190;47.918;8.112;2024-02-26T00:57:24;88944.69;;;3.86;65.97
69909;BME280;57190;47.918;8.112;2024-02-26T00:59:50;88952.13;;;3.79;66.73
69909;BME280;57190;47.918;8.112;2024-02-26T01:02:16;88949.81;;;3.72;68.06
69909;BME280;57190;47.918;8.112;2024-02-26T01:04:41;88941.41;;;3.65;68.68
69909;BME280;57190;47.918;8.112;2024-02-26T01:07:07;88945.63;;;3.61;69.02
69909;BME280;57190;47.918;8.112;2024-02-26T01:09:32;88940.41;;;3.56;69.81
69909;BME280;57190;47.918;8.112;2024-02-26T01:11:57;88937.78;;;3.51;69.92
69909;BME280;57190;47.918;8.112;2024-02-26T01:14:23;88935.16;;;3.51;70.62
69909;BME280;57190;47.918;8.112;2024-02-26T01:16:49;88934.63;;;3.49;70.78
69909;BME280;57190;47.918;8.112;2024-02-26T01:19:14;88930.44;;;3.48;71.13
69909;BME280;57190;47.918;8.112;2024-02-26T01:21:40;88920.16;;;3.46;70.70
69909;BME280;57190;47.918;8.112;2024-02-26T01:24:06;88916.50;;;3.42;71.58
69909;BME280;57190;47.918;8.112;2024-02-26T01:26:32;88922.81;;;3.41;70.44
69909;BME280;57190;47.918;8.112;2024-02-26T01:28:57;88911.47;;;3.40;70.84
69909;BME280;57190;47.918;8.112;2024-02-26T01:31:23;88913.09;;;3.36;71.31
69909;BME280;57190;47.918;8.112;2024-02-26T01:33:49;88909.41;;;3.37;71.40
69909;BME280;57190;47.918;8.112;2024-02-26T01:36:15;88905.97;;;3.37;71.09
69909;BME280;57190;47.918;8.112;2024-02-26T01:38:40;88911.78;;;3.34;70.77
69909;BME280;57190;47.918;8.112;2024-02-26T01:41:06;88907.00;;;3.41;70.03
69909;BME280;57190;47.918;8.112;2024-02-26T01:43:32;88922.00;;;3.45;70.60
69909;BME280;57190;47.918;8.112;2024-02-26T01:45:57;88923.81;;;3.50;70.12
69909;BME280;57190;47.918;8.112;2024-02-26T01:48:25;88921.72;;;3.47;70.56
69909;BME280;57190;47.918;8.112;2024-02-26T01:50:51;88919.88;;;3.48;70.75
69909;BME280;57190;47.918;8.112;2024-02-26T01:53:17;88926.13;;;3.57;70.14
69909;BME280;57190;47.918;8.112;2024-02-26T01:55:43;88924.84;;;3.59;70.06
69909;BME280;57190;47.918;8.112;2024-02-26T01:58:09;88940.63;;;3.65;69.39
69909;BME280;57190;47.918;8.112;2024-02-26T02:00:35;88935.84;;;3.67;68.95
69909;BME280;57190;47.918;8.112;2024-02-26T02:03:02;88943.22;;;3.70;68.71
69909;BME280;57190;47.918;8.112;2024-02-26T02:05:29;88942.16;;;3.71;68.60
69909;BME280;57190;47.918;8.112;2024-02-26T02:07:55;88954.03;;;3.73;68.78
69909;BME280;57190;47.918;8.112;2024-02-26T02:10:21;88956.13;;;3.71;69.02
69909;BME280;57190;47.918;8.112;2024-02-26T02:12:50;88945.59;;;3.71;68.50
69909;BME280;57190;47.918;8.112;2024-02-26T02:15:16;88955.09;;;3.72;68.91
69909;BME280;57190;47.918;8.112;2024-02-26T02:17:41;88957.19;;;3.70;68.69
69909;BME280;57190;47.918;8.112;2024-02-26T02:20:15;88960.38;;;3.67;69.27
69909;BME280;57190;47.918;8.112;2024-02-26T02:22:42;88960.34;;;3.72;68.76
69909;BME280;57190;47.918;8.112;2024-02-26T02:25:08;88956.38;;;3.70;69.48
69909;BME280;57190;47.918;8.112;2024-02-26T02:27:33;88960.13;;;3.64;70.99
69909;BME280;57190;47.918;8.112;2024-02-26T02:29:59;88947.03;;;3.48;72.34
69909;BME280;57190;47.918;8.112;2024-02-26T02:32:25;88963.13;;;3.41;73.62
69909;BME280;57190;47.918;8.112;2024-02-26T02:34:51;88957.66;;;3.33;74.55
69909;BME280;57190;47.918;8.112;2024-02-26T02:37:17;88954.50;;;3.25;74.81
69909;BME280;57190;47.918;8.112;2024-02-26T02:39:43;88950.59;;;3.23;75.04
69909;BME280;57190;47.918;8.112;2024-02-26T02:42:11;88938.75;;;3.15;75.32
69909;BME280;57190;47.918;8.112;2024-02-26T02:44:37;88940.59;;;3.09;75.95
69909;BME280;57190;47.918;8.112;2024-02-26T02:47:03;88932.47;;;3.01;76.65
69909;BME280;57190;47.918;8.112;2024-02-26T02:49:28;88934.59;;;2.98;77.31
69909;BME280;57190;47.918;8.112;2024-02-26T02:51:53;88922.78;;;2.86;77.83
69909;BME280;57190;47.918;8.112;2024-02-26T02:54:20;88920.41;;;2.79;78.39
69909;BME280;57190;47.918;8.112;2024-02-26T02:56:45;88917.53;;;2.75;78.54
69909;BME280;57190;47.918;8.112;2024-02-26T02:59:11;88921.50;;;2.73;79.44
69909;BME280;57190;47.918;8.112;2024-02-26T03:01:36;88913.88;;;2.66;79.48
69909;BME280;57190;47.918;8.112;2024-02-26T03:04:02;88911.50;;;2.64;80.31
69909;BME280;57190;47.918;8.112;2024-02-26T03:06:29;88906.53;;;2.63;80.27
69909;BME280;57190;47.918;8.112;2024-02-26T03:08:54;88902.06;;;2.53;80.92
69909;BME280;57190;47.918;8.112;2024-02-26T03:11:20;88897.59;;;2.54;80.89
69909;BME280;57190;47.918;8.112;2024-02-26T03:13:46;88898.88;;;2.61;80.50
69909;BME280;57190;47.918;8.112;2024-02-26T03:16:11;88910.97;;;2.62;81.18
69909;BME280;57190;47.918;8.112;2024-02-26T03:18:40;88907.56;;;2.62;81.25
69909;BME280;57190;47.918;8.112;2024-02-26T03:21:06;88916.00;;;2.64;81.65
69909;BME280;57190;47.918;8.112;2024-02-26T03:23:31;88913.88;;;2.61;81.28
69909;BME280;57190;47.918;8.112;2024-02-26T03:26:02;88913.63;;;2.57;82.13
69909;BME280;57190;47.918;8.112;2024-02-26T03:28:27;88917.31;;;2.56;81.89
69909;BME280;57190;47.918;8.112;2024-02-26T03:30:53;88920.22;;;2.55;82.27
69909;BME280;57190;47.918;8.112;2024-02-26T03:33:18;88926.00;;;2.51;82.79
69909;BME280;57190;47.918;8.112;2024-02-26T03:35:44;88933.38;;;2.49;82.80
69909;BME280;57190;47.918;8.112;2024-02-26T03:38:09;88930.50;;;2.46;83.17
69909;BME280;57190;47.918;8.112;2024-02-26T03:40:35;88929.97;;;2.44;82.55
69909;BME280;57190;47.918;8.112;2024-02-26T03:43:00;88930.50;;;2.41;82.44
69909;BME280;57190;47.918;8.112;2024-02-26T03:45:26;88931.03;;;2.38;82.34
69909;BME280;57190;47.918;8.112;2024-02-26T03:47:52;88929.22;;;2.38;83.13
69909;BME280;57190;47.918;8.112;2024-02-26T03:50:18;88932.88;;;2.37;82.53
69909;BME280;57190;47.918;8.112;2024-02-26T03:52:43;88937.34;;;2.36;82.95
69909;BME280;57190;47.918;8.112;2024-02-26T03:55:09;88941.31;;;2.39;82.44
69909;BME280;57190;47.918;8.112;2024-02-26T03:57:36;88940.22;;;2.40;82.29
69909;BME280;57190;47.918;8.112;2024-02-26T04:00:01;88934.44;;;2.43;82.54
69909;BME280;57190;47.918;8.112;2024-02-26T04:02:27;88933.94;;;2.46;81.83
69909;BME280;57190;47.918;8.112;2024-02-26T04:04:53;88936.28;;;2.48;81.93
69909;BME280;57190;47.918;8.112;2024-02-26T04:07:19;88924.16;;;2.57;81.44
69909;BME280;57190;47.918;8.112;2024-02-26T04:09:44;88929.94;;;2.64;81.29
69909;BME280;57190;47.918;8.112;2024-02-26T04:12:10;88931.00;;;2.69;81.32
69909;BME280;57190;47.918;8.112;2024-02-26T04:14:36;88933.88;;;2.72;82.15
69909;BME280;57190;47.918;8.112;2024-02-26T04:17:02;88935.72;;;2.77;81.39
69909;BME280;57190;47.918;8.112;2024-02-26T04:19:27;88937.50;;;2.81;80.95
69909;BME280;57190;47.918;8.112;2024-02-26T04:21:53;88943.84;;;2.86;81.42
69909;BME280;57190;47.918;8.112;2024-02-26T04:24:19;88940.94;;;2.87;81.21
69909;BME280;57190;47.918;8.112;2024-02-26T04:26:44;88939.09;;;2.88;80.29
69909;BME280;57190;47.918;8.112;2024-02-26T04:29:10;88952.78;;;2.90;81.04
69909;BME280;57190;47.918;8.112;2024-02-26T04:31:37;88954.34;;;2.91;80.37
69909;BME280;57190;47.918;8.112;2024-02-26T04:34:03;88946.72;;;2.89;80.70
69909;BME280;57190;47.918;8.112;2024-02-26T04:36:28;88953.06;;;2.93;80.98
69909;BME280;57190;47.918;8.112;2024-02-26T04:38:54;88961.47;;;2.90;81.18
69909;BME280;57190;47.918;8.112;2024-02-26T04:41:22;88964.63;;;2.92;80.83
69909;BME280;57190;47.918;8.112;2024-02-26T04:43:48;88964.38;;;2.94;81.29
69909;BME280;57190;47.918;8.112;2024-02-26T04:46:13;88970.41;;;2.94;81.63
69909;BME280;57190;47.918;8.112;2024-02-26T04:48:39;88978.06;;;2.91;80.99
69909;BME280;57190;47.918;8.112;2024-02-26T04:51:06;88979.63;;;2.92;81.70
69909;BME280;57190;47.918;8.112;2024-02-26T04:53:32;88983.88;;;2.88;80.93
69909;BME280;57190;47.918;8.112;2024-02-26T04:55:57;88983.31;;;2.91;81.43
69909;BME280;57190;47.918;8.112;2024-02-26T04:58:23;88992.53;;;2.88;82.16
69909;BME280;57190;47.918;8.112;2024-02-26T05:00:48;88998.09;;;2.87;82.04
69909;BME280;57190;47.918;8.112;2024-02-26T05:03:14;89005.72;;;2.88;81.56
69909;BME280;57190;47.918;8.112;2024-02-26T05:05:42;89007.81;;;2.86;82.51
69909;BME280;57190;47.918;8.112;2024-02-26T05:08:08;89009.94;;;2.79;82.35
69909;BME280;57190;47.918;8.112;2024-02-26T05:10:33;89006.28;;;2.75;82.85
69909;BME280;57190;47.918;8.112;2024-02-26T05:12:59;89005.50;;;2.69;82.80
69909;BME280;57190;47.918;8.112;2024-02-26T05:15:25;89009.19;;;2.63;83.29
69909;BME280;57190;47.918;8.112;2024-02-26T05:17:50;89002.84;;;2.59;83.34
69909;BME280;57190;47.918;8.112;2024-02-26T05:20:16;88997.06;;;2.51;83.91
69909;BME280;57190;47.918;8.112;2024-02-26T05:22:42;88994.72;;;2.50;84.33
69909;BME280;57190;47.918;8.112;2024-02-26T05:25:07;88996.03;;;2.47;84.13
69909;BME280;57190;47.918;8.112;2024-02-26T05:27:33;88991.28;;;2.44;84.19
69909;BME280;57190;47.918;8.112;2024-02-26T05:29:58;88997.06;;;2.41;85.13
69909;BME280;57190;47.918;8.112;2024-02-26T05:32:24;89002.59;;;2.45;85.09
69909;BME280;57190;47.918;8.112;2024-02-26T05:34:49;88998.38;;;2.44;84.88
69909;BME280;57190;47.918;8.112;2024-02-26T05:37:15;89002.09;;;2.43;84.78
69909;BME280;57190;47.918;8.112;2024-02-26T05:39:40;89004.44;;;2.44;85.04
69909;BME280;57190;47.918;8.112;2024-02-26T05:42:06;89006.56;;;2.47;84.69
69909;BME280;57190;47.918;8.112;2024-02-26T05:44:31;89003.94;;;2.47;84.29
69909;BME280;57190;47.918;8.112;2024-02-26T05:46:57;89011.31;;;2.45;84.75
69909;BME280;57190;47.918;8.112;2024-02-26T05:49:22;89008.13;;;2.48;84.44
69909;BME280;57190;47.918;8.112;2024-02-26T05:51:48;89010.25;;;2.51;84.81
69909;BME280;57190;47.918;8.112;2024-02-26T05:54:13;89008.66;;;2.50;84.38
69909;BME280;57190;47.918;8.112;2024-02-26T05:56:39;89017.84;;;2.53;84.11
69909;BME280;57190;47.918;8.112;2024-02-26T05:59:05;89018.66;;;2.54;84.28
69909;BME280;57190;47.918;8.112;2024-02-26T06:01:30;89014.19;;;2.54;84.62
69909;BME280;57190;47.918;8.112;2024-02-26T06:03:56;89007.59;;;2.51;83.98
69909;BME280;57190;47.918;8.112;2024-02-26T06:06:22;89011.53;;;2.54;83.97
69909;BME280;57190;47.918;8.112;2024-02-26T06:08:49;89010.78;;;2.54;84.45
69909;BME280;57190;47.918;8.112;2024-02-26T06:11:14;89015.78;;;2.50;84.44
69909;BME280;57190;47.918;8.112;2024-02-26T06:13:40;89014.97;;;2.49;84.27
69909;BME280;57190;47.918;8.112;2024-02-26T06:16:07;89015.25;;;2.48;84.14
69909;BME280;57190;47.918;8.112;2024-02-26T06:18:33;89021.03;;;2.50;83.73
69909;BME280;57190;47.918;8.112;2024-02-26T06:20:58;89010.50;;;2.50;84.17
69909;BME280;57190;47.918;8.112;2024-02-26T06:23:25;89017.34;;;2.56;83.59
69909;BME280;57190;47.918;8.112;2024-02-26T06:25:51;89017.34;;;2.56;83.54
69909;BME280;57190;47.918;8.112;2024-02-26T06:28:17;89019.69;;;2.58;83.88
69909;BME280;57190;47.918;8.112;2024-02-26T06:30:43;89004.44;;;2.60;83.58
69909;BME280;57190;47.918;8.112;2024-02-26T06:33:08;89021.28;;;2.59;83.84
69909;BME280;57190;47.918;8.112;2024-02-26T06:35:34;89019.47;;;2.59;83.23
69909;BME280;57190;47.918;8.112;2024-02-26T06:37:59;89023.91;;;2.59;84.42
69909;BME280;57190;47.918;8.112;2024-02-26T06:40:25;89019.19;;;2.61;84.05
69909;BME280;57190;47.918;8.112;2024-02-26T06:42:53;89016.81;;;2.64;83.47
69909;BME280;57190;47.918;8.112;2024-02-26T06:45:21;89021.56;;;2.67;83.92
69909;BME280;57190;47.918;8.112;2024-02-26T06:47:47;89022.88;;;2.70;83.80
69909;BME280;57190;47.918;8.112;2024-02-26T06:50:12;89019.97;;;2.72;83.50
69909;BME280;57190;47.918;8.112;2024-02-26T06:52:39;89020.50;;;2.74;83.77
69909;BME280;57190;47.918;8.112;2024-02-26T06:55:04;89017.59;;;2.75;84.07
69909;BME280;57190;47.918;8.112;2024-02-26T06:57:32;89013.13;;;2.76;83.20
69909;BME280;57190;47.918;8.112;2024-02-26T06:59:58;89014.16;;;2.80;83.48
69909;BME280;57190;47.918;8.112;2024-02-26T07:02:24;89010.72;;;2.90;83.45
69909;BME280;57190;47.918;8.112;2024-02-26T07:04:49;89001.75;;;2.96;83.01
69909;BME280;57190;47.918;8.112;2024-02-26T07:07:15;89005.94;;;3.02;82.95
69909;BME280;57190;47.918;8.112;2024-02-26T07:09:43;88999.38;;;2.99;83.55
69909;BME280;57190;47.918;8.112;2024-02-26T07:12:09;89010.41;;;3.07;83.37
69909;BME280;57190;47.918;8.112;2024-02-26T07:14:34;89007.00;;;3.11;83.10
69909;BME280;57190;47.918;8.112;2024-02-26T07:17:00;89009.59;;;3.17;82.95
69909;BME280;57190;47.918;8.112;2024-02-26T07:19:25;89007.75;;;3.22;82.69
69909;BME280;57190;47.918;8.112;2024-02-26T07:21:51;89000.66;;;3.23;82.50
69909;BME280;57190;47.918;8.112;2024-02-26T07:24:16;89013.28;;;3.21;83.25
69909;BME280;57190;47.918;8.112;2024-02-26T07:26:42;89005.63;;;3.24;82.64
69909;BME280;57190;47.918;8.112;2024-02-26T07:29:07;89011.16;;;3.28;83.20
69909;BME280;57190;47.918;8.112;2024-02-26T07:31:33;89012.19;;;3.32;82.66
69909;BME280;57190;47.918;8.112;2024-02-26T07:33:58;89024.56;;;3.37;83.04
69909;BME280;57190;47.918;8.112;2024-02-26T07:36:23;89030.44;;;3.18;82.91
69909;BME280;57190;47.918;8.112;2024-02-26T07:38:49;89034.13;;;3.07;84.04
69909;BME280;57190;47.918;8.112;2024-02-26T07:41:14;89040.19;;;3.07;84.12
69909;BME280;57190;47.918;8.112;2024-02-26T07:43:40;89041.75;;;3.13;83.59
69909;BME280;57190;47.918;8.112;2024-02-26T07:46:06;89045.44;;;3.18;83.61
69909;BME280;57190;47.918;8.112;2024-02-26T07:48:32;89043.03;;;3.32;83.09
69909;BME280;57190;47.918;8.112;2024-02-26T07:50:57;89047.16;;;3.53;82.53
69909;BME280;57190;47.918;8.112;2024-02-26T07:53:25;89051.59;;;3.68;82.04
69909;BME280;57190;47.918;8.112;2024-02-26T07:55:50;89053.91;;;3.80;81.74
69909;BME280;57190;47.918;8.112;2024-02-26T07:58:16;89046.66;;;4.12;81.65
69909;BME280;57190;47.918;8.112;2024-02-26T08:00:41;89043.94;;;4.62;79.32
69909;BME280;57190;47.918;8.112;2024-02-26T08:03:06;89051.72;;;6.52;75.09
69909;BME280;57190;47.918;8.112;2024-02-26T08:05:33;89054.88;;;6.16;73.41
69909;BME280;57190;47.918;8.112;2024-02-26T08:07:58;89045.06;;;5.92;74.80
69909;BME280;57190;47.918;8.112;2024-02-26T08:10:23;89039.28;;;6.53;72.02
69909;BME280;57190;47.918;8.112;2024-02-26T08:12:49;89045.75;;;5.79;73.74
69909;BME280;57190;47.918;8.112;2024-02-26T08:15:14;89049.50;;;5.24;76.12
69909;BME280;57190;47.918;8.112;2024-02-26T08:17:40;89038.50;;;5.12;77.23
69909;BME280;57190;47.918;8.112;2024-02-26T08:20:06;89040.56;;;6.36;75.05
69909;BME280;57190;47.918;8.112;2024-02-26T08:22:31;89026.75;;;9.09;68.34
69909;BME280;57190;47.918;8.112;2024-02-26T08:24:58;89043.16;;;11.87;63.26
69909;BME280;57190;47.918;8.112;2024-02-26T08:27:23;89045.06;;;16.73;54.83
69909;BME280;57190;47.918;8.112;2024-02-26T08:29:49;89033.38;;;21.54;43.53
69909;BME280;57190;47.918;8.112;2024-02-26T08:32:14;89018.41;;;23.20;35.68
69909;BME280;57190;47.918;8.112;2024-02-26T08:34:40;89023.38;;;19.62;39.46
69909;BME280;57190;47.918;8.112;2024-02-26T08:37:06;89027.88;;;15.85;45.79
69909;BME280;57190;47.918;8.112;2024-02-26T08:39:31;89030.22;;;12.96;51.82
69909;BME280;57190;47.918;8.112;2024-02-26T08:41:57;89035.09;;;11.13;56.42
69909;BME280;57190;47.918;8.112;2024-02-26T08:44:22;89039.91;;;10.00;58.79
69909;BME280;57190;47.918;8.112;2024-02-26T08:46:48;89036.91;;;9.30;61.25
69909;BME280;57190;47.918;8.112;2024-02-26T08:49:13;89047.78;;;8.97;62.12
69909;BME280;57190;47.918;8.112;2024-02-26T08:51:42;89041.75;;;8.83;62.53
69909;BME280;57190;47.918;8.112;2024-02-26T08:54:09;89050.03;;;9.04;62.30
69909;BME280;57190;47.918;8.112;2024-02-26T08:56:34;89048.09;;;8.95;62.78
69909;BME280;57190;47.918;8.112;2024-02-26T08:58:59;89052.00;;;8.75;62.77
69909;BME280;57190;47.918;8.112;2024-02-26T09:01:31;89048.19;;;8.54;63.52
69909;BME280;57190;47.918;8.112;2024-02-26T09:03:58;89046.22;;;8.45;64.11
69909;BME280;57190;47.918;8.112;2024-02-26T09:06:24;89035.91;;;8.30;64.76
69909;BME280;57190;47.918;8.112;2024-02-26T09:08:49;89052.88;;;8.20;63.70
69909;BME280;57190;47.918;8.112;2024-02-26T09:11:15;89052.56;;;8.08;64.34
69909;BME280;57190;47.918;8.112;2024-02-26T09:13:41;89053.56;;;7.98;64.48
69909;BME280;57190;47.918;8.112;2024-02-26T09:16:07;89060.53;;;7.94;65.90
69909;BME280;57190;47.918;8.112;2024-02-26T09:18:33;89057.00;;;7.84;65.25
69909;BME280;57190;47.918;8.112;2024-02-26T09:20:58;89067.22;;;7.91;65.43
69909;BME280;57190;47.918;8.112;2024-02-26T09:23:24;89069.78;;;8.10;65.09
69909;BME280;57190;47.918;8.112;2024-02-26T09:25:49;89061.97;;;8.42;65.30
69909;BME280;57190;47.918;8.112;2024-02-26T09:28:14;89061.97;;;8.92;63.64
69909;BME280;57190;47.918;8.112;2024-02-26T09:30:44;89059.31;;;9.60;62.27
69909;BME280;57190;47.918;8.112;2024-02-26T09:33:09;89067.28;;;10.23;60.21
69909;BME280;57190;47.918;8.112;2024-02-26T09:35:34;89066.03;;;10.30;59.71
69909;BME280;57190;47.918;8.112;2024-02-26T09:38:00;89077.72;;;10.20;59.39
69909;BME280;57190;47.918;8.112;2024-02-26T09:40:26;89080.97;;;10.40;58.07
69909;BME280;57190;47.918;8.112;2024-02-26T09:42:59;89075.72;;;10.66;58.55
69909;BME280;57190;47.918;8.112;2024-02-26T09:45:26;89080.38;;;10.43;60.56
69909;BME280;57190;47.918;8.112;2024-02-26T09:47:55;89074.72;;;10.44;59.25
69909;BME280;57190;47.918;8.112;2024-02-26T09:50:21;89078.88;;;9.87;60.00
69909;BME280;57190;47.918;8.112;2024-02-26T09:52:51;89085.38;;;10.13;60.40
69909;BME280;57190;47.918;8.112;2024-02-26T09:55:17;89086.84;;;10.59;59.54
69909;BME280;57190;47.918;8.112;2024-02-26T09:57:48;89088.41;;;10.69;58.98
69909;BME280;57190;47.918;8.112;2024-02-26T10:00:21;89096.28;;;9.94;59.88
69909;BME280;57190;47.918;8.112;2024-02-26T10:02:47;89096.56;;;9.60;61.56
69909;BME280;57190;47.918;8.112;2024-02-26T10:05:16;89094.88;;;9.65;62.11
69909;BME280;57190;47.918;8.112;2024-02-26T10:07:44;89096.75;;;9.64;62.72
69909;BME280;57190;47.918;8.112;2024-02-26T10:10:09;89096.53;;;9.52;62.14
69909;BME280;57190;47.918;8.112;2024-02-26T10:12:35;89088.66;;;9.24;61.84
69909;BME280;57190;47.918;8.112;2024-02-26T10:15:01;89088.38;;;8.89;62.43
69909;BME280;57190;47.918;8.112;2024-02-26T10:17:27;89094.69;;;8.93;62.30
69909;BME280;57190;47.918;8.112;2024-02-26T10:19:54;89079.66;;;9.11;65.05
69909;BME280;57190;47.918;8.112;2024-02-26T10:22:22;89075.97;;;9.21;62.46
69909;BME280;57190;47.918;8.112;2024-02-26T10:24:48;89082.75;;;9.27;62.98
69909;BME280;57190;47.918;8.112;2024-02-26T10:27:14;89094.53;;;9.35;62.22
69909;BME280;57190;47.918;8.112;2024-02-26T10:29:40;89098.34;;;9.42;62.83
69909;BME280;57190;47.918;8.112;2024-02-26T10:32:07;89101.00;;;9.65;62.25
69909;BME280;57190;47.918;8.112;2024-02-26T10:34:35;89094.53;;;9.89;60.48
69909;BME280;57190;47.918;8.112;2024-02-26T10:37:03;89087.53;;;9.93;59.75
69909;BME280;57190;47.918;8.112;2024-02-26T10:39:30;89083.47;;;10.04;59.08
69909;BME280;57190;47.918;8.112;2024-02-26T10:41:55;89092.00;;;9.84;59.27
69909;BME280;57190;47.918;8.112;2024-02-26T10:44:20;89102.19;;;9.82;58.14
69909;BME280;57190;47.918;8.112;2024-02-26T10:46:47;89117.22;;;9.78;59.51
69909;BME280;57190;47.918;8.112;2024-02-26T10:49:16;89125.97;;;9.78;60.45
69909;BME280;57190;47.918;8.112;2024-02-26T10:51:48;89122.56;;;9.86;60.75
69909;BME280;57190;47.918;8.112;2024-02-26T10:54:17;89126.00;;;9.87;60.38
69909;BME280;57190;47.918;8.112;2024-02-26T10:56:46;89123.81;;;9.89;59.37
69909;BME280;57190;47.918;8.112;2024-02-26T10:59:14;89122.31;;;9.97;58.93
69909;BME280;57190;47.918;8.112;2024-02-26T11:01:47;89126.09;;;9.50;58.58
69909;BME280;57190;47.918;8.112;2024-02-26T11:04:15;89128.22;;;9.39;59.20
69909;BME280;57190;47.918;8.112;2024-02-26T11:06:41;89132.44;;;9.40;59.40
69909;BME280;57190;47.918;8.112;2024-02-26T11:09:08;89141.09;;;9.46;59.81
69909;BME280;57190;47.918;8.112;2024-02-26T11:11:38;89145.63;;;9.46;59.25
69909;BME280;57190;47.918;8.112;2024-02-26T11:14:06;89152.13;;;9.53;59.57
69909;BME280;57190;47.918;8.112;2024-02-26T11:16:35;89155.13;;;9.60;58.29
69909;BME280;57190;47.918;8.112;2024-02-26T11:19:02;89148.38;;;9.54;57.60
69909;BME280;57190;47.918;8.112;2024-02-26T11:21:28;89142.50;;;9.66;57.53
69909;BME280;57190;47.918;8.112;2024-02-26T11:24:05;89146.50;;;9.78;57.78
69909;BME280;57190;47.918;8.112;2024-02-26T11:26:34;89146.03;;;9.84;57.99
69909;BME280;57190;47.918;8.112;2024-02-26T11:29:02;89145.47;;;9.96;58.47
69909;BME280;57190;47.918;8.112;2024-02-26T11:31:28;89143.56;;;9.88;56.45
69909;BME280;57190;47.918;8.112;2024-02-26T11:33:55;89142.44;;;9.80;57.77
69909;BME280;57190;47.918;8.112;2024-02-26T11:36:23;89129.91;;;9.58;56.21
69909;BME280;57190;47.918;8.112;2024-02-26T11:38:49;89126.94;;;9.59;56.56
69909;BME280;57190;47.918;8.112;2024-02-26T11:41:17;89122.38;;;9.83;54.20
69909;BME280;57190;47.918;8.112;2024-02-26T11:43:52;89134.09;;;10.04;54.23
69909;BME280;57190;47.918;8.112;2024-02-26T11:46:32;89133.97;;;10.10;49.94
69909;BME280;57190;47.918;8.112;2024-02-26T11:49:47;89132.66;;;9.98;50.23
69909;BME280;57190;47.918;8.112;2024-02-26T11:51:51;89132.72;;;9.84;50.88
69909;BME280;57190;47.918;8.112;2024-02-26T11:59:49;89125.22;;;9.86;51.39
69909;BME280;57190;47.918;8.112;2024-02-26T12:02:37;89129.81;;;9.95;52.84
69909;BME280;57190;47.918;8.112;2024-02-26T12:05:17;89124.50;;;9.95;52.24
69909;BME280;57190;47.918;8.112;2024-02-26T12:07:49;89131.50;;;9.90;52.82
69909;BME280;57190;47.918;8.112;2024-02-26T12:10:28;89129.50;;;9.96;55.05
69909;BME280;57190;47.918;8.112;2024-02-26T12:13:02;89126.13;;;9.82;55.62
69909;BME280;57190;47.918;8.112;2024-02-26T12:18:17;89121.50;;;9.96;54.64
69909;BME280;57190;47.918;8.112;2024-02-26T12:20:43;89122.88;;;9.85;54.48
69909;BME280;57190;47.918;8.112;2024-02-26T12:23:14;89124.63;;;9.89;53.98
69909;BME280;57190;47.918;8.112;2024-02-26T12:25:40;89129.78;;;9.86;53.77
69909;BME280;57190;47.918;8.112;2024-02-26T12:28:07;89129.16;;;9.89;52.96
69909;BME280;57190;47.918;8.112;2024-02-26T12:30:33;89128.31;;;10.02;51.87
69909;BME280;57190;47.918;8.112;2024-02-26T12:33:00;89127.75;;;10.23;52.04
69909;BME280;57190;47.918;8.112;2024-02-26T12:35:27;89134.31;;;10.17;53.32
69909;BME280;57190;47.918;8.112;2024-02-26T12:37:54;89130.97;;;10.02;52.85
69909;BME280;57190;47.918;8.112;2024-02-26T12:40:20;89132.66;;;9.98;51.63
69909;BME280;57190;47.918;8.112;2024-02-26T12:42:46;89134.38;;;9.94;51.67
69909;BME280;57190;47.918;8.112;2024-02-26T12:45:12;89127.81;;;10.00;53.43
69909;BME280;57190;47.918;8.112;2024-02-26T12:47:38;89139.72;;;10.03;54.69
69909;BME280;57190;47.918;8.112;2024-02-26T12:50:05;89131.84;;;10.29;55.66
69909;BME280;57190;47.918;8.112;2024-02-26T12:52:32;89127.75;;;10.54;54.95
69909;BME280;57190;47.918;8.112;2024-02-26T12:54:58;89132.03;;;10.73;54.61
69909;BME280;57190;47.918;8.112;2024-02-26T12:57:24;89119.25;;;10.44;54.34
69909;BME280;57190;47.918;8.112;2024-02-26T12:59:51;89124.94;;;10.60;55.85
69909;BME280;57190;47.918;8.112;2024-02-26T13:02:16;89127.00;;;10.63;53.70
69909;BME280;57190;47.918;8.112;2024-02-26T13:04:42;89128.84;;;10.62;52.83
69909;BME280;57190;47.918;8.112;2024-02-26T13:07:09;89127.31;;;10.70;52.90
69909;BME280;57190;47.918;8.112;2024-02-26T13:09:35;89127.81;;;10.72;52.39
69909;BME280;57190;47.918;8.112;2024-02-26T13:12:04;89128.28;;;10.74;52.63
69909;BME280;57190;47.918;8.112;2024-02-26T13:14:30;89128.81;;;10.45;50.50